Time;durP1;ratioP1;P1;durP2;ratioP2;P2;SDS_P1;SDS_P2;PMS_P1;PMS_P2;Temp;Humidity;BMP_temperature;BMP_pressure;BME280_temperature;BME280_humidity;BME280_pressure;Samples;Min_cycle;Max_cycle;Signal;HPM_P1;HPM_P2
2024/01/24 00:01:57;;;;;;;82.00;53.85;;;15.50;99.90;;;;;;5068941;28;20047;-65
2024/01/24 00:04:24;;;;;;;81.72;51.45;;;16.60;97.30;;;;;;5068480;28;20029;-65
2024/01/24 00:06:50;;;;;;;84.18;53.42;;;16.50;55.70;;;;;;5068008;28;20122;-67
2024/01/24 00:09:15;;;;;;;74.45;50.00;;;16.70;1.00;;;;;;5068277;28;20040;-65
2024/01/24 00:11:41;;;;;;;81.50;51.97;;;15.50;1.00;;;;;;5068408;28;20055;-65
2024/01/24 00:14:07;;;;;;;76.78;59.22;;;15.90;1.00;;;;;;5068097;28;20062;-66
2024/01/24 00:16:32;;;;;;;71.45;51.97;;;16.70;1.00;;;;;;5067971;28;20047;-65
2024/01/24 00:18:58;;;;;;;70.88;49.05;;;16.40;1.00;;;;;;5067503;28;20040;-65
2024/01/24 00:21:23;;;;;;;77.32;51.20;;;15.50;99.90;;;;;;5068302;28;20449;-65
2024/01/24 00:23:49;;;;;;;79.00;50.50;;;15.80;99.90;;;;;;5068170;28;20080;-66
2024/01/24 00:26:14;;;;;;;70.97;50.28;;;15.80;1.00;;;;;;5067765;28;20044;-65
2024/01/24 00:28:40;;;;;;;70.63;50.28;;;16.80;99.90;;;;;;5068300;28;20044;-65
2024/01/24 00:31:05;;;;;;;79.18;49.03;;;15.50;99.90;;;;;;5050205;28;20052;-65
2024/01/24 00:33:32;;;;;;;76.57;51.25;;;15.70;99.90;;;;;;5051333;28;20043;-66
2024/01/24 00:35:57;;;;;;;76.70;49.22;;;16.90;99.90;;;;;;5067748;28;20068;-67
2024/01/24 00:38:23;;;;;;;81.10;49.38;;;16.90;99.90;;;;;;5068167;28;20090;-65
2024/01/24 00:40:48;;;;;;;72.60;50.90;;;16.70;93.20;;;;;;5067979;28;20047;-65
2024/01/24 00:43:14;;;;;;;73.40;49.83;;;16.90;99.90;;;;;;5067963;28;20071;-66
2024/01/24 00:45:39;;;;;;;76.88;51.05;;;16.90;99.90;;;;;;5068408;28;20051;-64
2024/01/24 00:48:06;;;;;;;69.15;45.78;;;16.50;99.90;;;;;;5067459;28;20040;-66
2024/01/24 00:50:34;;;;;;;72.75;48.95;;;15.70;99.90;;;;;;5065288;28;20089;-65
2024/01/24 00:53:03;;;;;;;68.80;47.22;;;15.70;99.90;;;;;;5047703;28;20409;-65
2024/01/24 00:55:30;;;;;;;80.53;56.58;;;16.90;53.80;;;;;;5048395;28;20045;-66
2024/01/24 00:57:57;;;;;;;67.93;49.10;;;17.00;1.00;;;;;;5065128;28;20040;-67
2024/01/24 01:00:23;;;;;;;72.03;47.63;;;15.90;1.00;;;;;;5065973;28;20414;-65
2024/01/24 01:02:49;;;;;;;72.10;48.03;;;17.00;1.00;;;;;;5067457;28;20051;-65
2024/01/24 01:05:14;;;;;;;73.97;52.70;;;17.00;99.90;;;;;;5067358;28;20040;-65
2024/01/24 01:07:40;;;;;;;75.45;45.90;;;17.10;99.90;;;;;;5057169;28;20051;-66
2024/01/24 01:10:09;;;;;;;81.57;52.38;;;17.00;99.90;;;;;;5067565;28;20768;-65
2024/01/24 01:12:34;;;;;;;78.05;47.88;;;15.80;99.90;;;;;;5067474;28;20571;-65
2024/01/24 01:15:00;;;;;;;84.22;54.00;;;15.80;99.90;;;;;;5067530;28;20044;-65
2024/01/24 01:17:26;;;;;;;75.60;46.75;;;15.80;99.90;;;;;;5054641;28;20482;-65
2024/01/24 01:19:51;;;;;;;64.93;52.13;;;16.60;99.90;;;;;;5067017;28;20086;-65
2024/01/24 01:22:18;;;;;;;75.38;56.83;;;17.40;99.90;;;;;;5067020;28;20049;-65
2024/01/24 01:24:43;;;;;;;69.15;51.67;;;16.60;99.90;;;;;;5049026;28;20386;-65
2024/01/24 01:27:09;;;;;;;73.30;49.03;;;15.90;83.00;;;;;;5066850;28;20082;-64
2024/01/24 01:29:34;;;;;;;76.05;55.20;;;16.30;32.70;;;;;;5067346;28;20055;-65
2024/01/24 01:32:00;;;;;;;98.25;50.25;;;17.10;1.00;;;;;;5067303;28;20036;-66
2024/01/24 01:34:26;;;;;;;81.82;55.60;;;17.20;1.00;;;;;;5066889;28;20045;-65
2024/01/24 01:36:52;;;;;;;72.90;49.53;;;17.00;1.00;;;;;;5066219;28;20091;-65
2024/01/24 01:39:18;;;;;;;69.15;50.25;;;16.80;1.00;;;;;;5066531;28;20490;-65
2024/01/24 01:41:48;;;;;;;69.68;48.28;;;17.00;1.00;;;;;;5067600;28;20074;-65
2024/01/24 01:44:15;;;;;;;67.47;48.20;;;16.70;1.00;;;;;;5067426;28;20052;-66
2024/01/24 01:46:42;;;;;;;68.82;51.33;;;17.20;99.90;;;;;;5067125;28;20450;-65
2024/01/24 01:49:07;;;;;;;70.57;45.72;;;16.50;99.90;;;;;;5059012;28;20072;-65
2024/01/24 01:51:33;;;;;;;72.88;46.50;;;17.10;99.90;;;;;;5066994;28;20931;-65
2024/01/24 01:54:00;;;;;;;71.72;52.97;;;16.60;99.90;;;;;;5066850;28;20080;-67
2024/01/24 01:56:25;;;;;;;73.70;55.75;;;16.90;99.90;;;;;;5066318;28;20048;-65
2024/01/24 01:58:52;;;;;;;66.82;44.90;;;16.50;99.90;;;;;;5053135;28;20044;-64
2024/01/24 02:01:18;;;;;;;66.13;43.53;;;16.90;99.90;;;;;;5066676;28;20436;-65
2024/01/24 02:03:45;;;;;;;69.10;48.75;;;16.20;99.90;;;;;;5066778;28;20037;-65
2024/01/24 02:06:11;;;;;;;77.97;52.60;;;16.00;99.90;;;;;;5066931;28;20050;-64
2024/01/24 02:08:37;;;;;;;62.95;47.80;;;16.90;99.90;;;;;;5066190;28;20115;-64
2024/01/24 02:11:04;;;;;;;70.38;46.58;;;16.90;99.90;;;;;;5066241;28;20521;-64
2024/01/24 02:13:31;;;;;;;72.90;45.63;;;15.90;99.90;;;;;;5048396;28;20055;-66
2024/01/24 02:16:00;;;;;;;67.43;47.00;;;16.70;99.90;;;;;;5048230;28;20048;-65
2024/01/24 02:18:25;;;;;;;67.93;44.13;;;15.80;99.90;;;;;;5060880;28;20138;-66
2024/01/24 02:20:51;;;;;;;70.97;48.45;;;16.00;99.90;;;;;;5065780;28;20143;-65
2024/01/24 02:23:19;;;;;;;70.15;51.22;;;16.10;99.90;;;;;;5048258;28;20102;-66
2024/01/24 02:25:44;;;;;;;60.58;48.05;;;16.90;97.50;;;;;;5065597;28;20048;-66
2024/01/24 02:28:10;;;;;;;64.30;42.72;;;16.30;99.90;;;;;;5065964;28;20398;-66
2024/01/24 02:30:35;;;;;;;66.35;45.05;;;16.70;99.90;;;;;;5065664;28;20033;-66
2024/01/24 02:33:02;;;;;;;75.65;46.10;;;15.70;81.40;;;;;;5065804;28;20051;-66
2024/01/24 02:35:28;;;;;;;70.95;54.95;;;15.60;44.60;;;;;;5065568;28;20052;-65
2024/01/24 02:37:54;;;;;;;73.90;49.25;;;15.80;1.80;;;;;;5055372;28;20067;-64
2024/01/24 02:40:20;;;;;;;69.47;44.35;;;15.70;1.00;;;;;;5065555;28;20032;-66
2024/01/24 02:42:45;;;;;;;64.93;45.25;;;15.50;1.00;;;;;;5065486;28;20059;-65
2024/01/24 02:45:11;;;;;;;70.05;43.10;;;15.70;1.00;;;;;;5065864;28;20040;-65
2024/01/24 02:47:37;;;;;;;61.92;42.83;;;16.30;1.00;;;;;;5052661;28;20389;-65
2024/01/24 02:50:04;;;;;;;67.43;49.65;;;16.10;1.00;;;;;;5065565;28;20040;-65
2024/01/24 02:52:30;;;;;;;66.57;46.88;;;15.70;1.00;;;;;;5033895;28;20036;-66
2024/01/24 02:54:55;;;;;;;74.57;44.20;;;15.90;99.90;;;;;;5065459;28;20443;-66
2024/01/24 02:57:21;;;;;;;68.32;44.42;;;16.20;99.90;;;;;;5065374;28;20040;-65
2024/01/24 02:59:46;;;;;;;59.92;42.15;;;16.90;99.90;;;;;;5065062;28;20584;-65
2024/01/24 03:02:12;;;;;;;63.45;44.72;;;16.40;99.90;;;;;;5065544;28;20040;-67
2024/01/24 03:04:38;;;;;;;70.45;43.63;;;15.80;99.90;;;;;;5065249;28;20105;-67
2024/01/24 03:07:03;;;;;;;68.13;40.85;;;16.50;99.90;;;;;;5047758;28;20044;-66
2024/01/24 03:09:29;;;;;;;68.70;43.47;;;15.80;99.90;;;;;;5065687;28;20040;-66
2024/01/24 03:11:54;;;;;;;73.13;43.80;;;15.60;99.90;;;;;;5066079;28;20415;-67
2024/01/24 03:14:21;;;;;;;70.63;46.53;;;15.50;99.90;;;;;;5065170;28;20044;-67
2024/01/24 03:16:47;;;;;;;81.68;45.13;;;15.40;99.90;;;;;;5065567;28;20430;-66
2024/01/24 03:19:13;;;;;;;71.90;40.70;;;15.90;99.90;;;;;;5064846;28;20119;-66
2024/01/24 03:21:40;;;;;;;74.55;43.67;;;15.60;99.90;;;;;;5064586;28;20028;-66
2024/01/24 03:24:06;;;;;;;72.07;42.47;;;15.80;99.90;;;;;;5064590;28;20044;-66
2024/01/24 03:26:31;;;;;;;70.88;44.40;;;15.80;99.90;;;;;;5065206;28;20051;-67
2024/01/24 03:28:57;;;;;;;75.15;45.05;;;16.30;99.90;;;;;;5064741;28;20045;-66
2024/01/24 03:31:23;;;;;;;74.03;44.72;;;15.50;99.90;;;;;;5064920;28;20045;-66
2024/01/24 03:33:48;;;;;;;71.25;44.45;;;16.50;99.90;;;;;;5064702;28;20086;-66
2024/01/24 03:36:14;;;;;;;73.38;45.13;;;15.70;99.90;;;;;;5064468;28;20528;-67
2024/01/24 03:38:39;;;;;;;73.18;45.03;;;16.20;99.90;;;;;;5065091;28;20490;-66
2024/01/24 03:41:05;;;;;;;63.67;41.78;;;16.00;99.90;;;;;;5064804;28;20044;-66
2024/01/24 03:43:31;;;;;;;60.72;38.67;;;15.60;83.40;;;;;;5064826;28;20517;-66
2024/01/24 03:45:56;;;;;;;73.65;43.75;;;15.50;46.30;;;;;;5064962;28;20052;-67
2024/01/24 03:48:22;;;;;;;67.00;41.90;;;15.60;18.90;;;;;;5064637;28;20490;-66
2024/01/24 03:50:47;;;;;;;87.80;44.88;;;16.70;1.00;;;;;;5063954;28;20045;-66
2024/01/24 03:53:13;;;;;;;85.93;43.58;;;16.30;1.00;;;;;;5080388;28;20044;-66
2024/01/24 03:55:38;;;;;;;73.63;40.78;;;16.00;1.00;;;;;;5065095;28;20585;-66
2024/01/24 03:58:04;;;;;;;73.55;44.15;;;15.30;1.00;;;;;;5064974;28;20041;-66
2024/01/24 04:00:30;;;;;;;70.68;40.80;;;15.40;1.00;;;;;;5064868;28;20225;-66
2024/01/24 04:02:55;;;;;;;92.13;43.22;;;15.90;1.00;;;;;;5064623;28;20039;-66
2024/01/24 04:05:21;;;;;;;87.18;43.97;;;15.40;1.00;;;;;;5064445;28;20051;-66
2024/01/24 04:07:46;;;;;;;70.65;43.13;;;15.80;1.00;;;;;;5064198;28;20036;-66
2024/01/24 04:10:12;;;;;;;79.45;44.80;;;16.20;1.00;;;;;;5079266;28;20051;-66
2024/01/24 04:12:38;;;;;;;88.28;45.50;;;15.40;1.00;;;;;;5084315;28;20035;-65
2024/01/24 04:15:05;;;;;;;80.05;41.95;;;15.60;1.00;;;;;;5064092;28;20513;-66
2024/01/24 04:17:31;;;;;;;85.22;43.30;;;15.50;99.90;;;;;;5064516;28;20086;-66
2024/01/24 04:19:56;;;;;;;93.22;41.78;;;15.50;99.90;;;;;;5064497;28;20050;-66
2024/01/24 04:22:22;;;;;;;92.90;43.30;;;15.80;99.90;;;;;;5064919;28;20037;-66
2024/01/24 04:24:48;;;;;;;89.95;44.05;;;16.00;99.90;;;;;;5064424;28;20135;-66
2024/01/24 04:27:14;;;;;;;77.53;43.50;;;15.80;99.90;;;;;;5064434;28;20490;-66
2024/01/24 04:29:42;;;;;;;75.53;40.35;;;15.70;99.90;;;;;;5064601;28;20048;-66
2024/01/24 04:32:08;;;;;;;95.70;46.83;;;15.00;99.90;;;;;;5065180;28;20040;-66
2024/01/24 04:34:33;;;;;;;88.32;43.78;;;15.30;99.90;;;;;;5064367;28;20048;-66
2024/01/24 04:36:59;;;;;;;100.00;47.00;;;15.00;99.90;;;;;;5051000;28;20120;-65
2024/01/24 04:39:24;;;;;;;92.28;43.70;;;15.20;99.90;;;;;;5067445;28;20118;-65
2024/01/24 04:41:50;;;;;;;100.22;44.97;;;15.60;99.90;;;;;;5068237;28;20040;-66
2024/01/24 04:44:15;;;;;;;107.57;45.78;;;15.20;99.90;;;;;;5068211;28;20048;-66
2024/01/24 04:46:41;;;;;;;93.35;44.22;;;15.70;99.90;;;;;;5067605;28;20040;-65
2024/01/24 04:49:07;;;;;;;89.15;44.85;;;15.80;99.90;;;;;;5066001;28;20336;-66
2024/01/24 04:51:34;;;;;;;113.03;48.13;;;15.60;99.90;;;;;;5057243;28;20594;-66
2024/01/24 04:54:00;;;;;;;109.55;48.42;;;15.70;99.90;;;;;;5057779;28;20422;-65
2024/01/24 04:56:27;;;;;;;103.10;46.20;;;15.70;99.90;;;;;;5067757;28;20265;-66
2024/01/24 04:58:52;;;;;;;119.07;49.20;;;15.00;99.90;;;;;;5067677;28;20040;-65
2024/01/24 05:01:18;;;;;;;107.88;45.53;;;15.70;99.90;;;;;;5067807;28;20033;-65
2024/01/24 05:03:44;;;;;;;115.28;45.55;;;15.50;99.90;;;;;;5067179;28;20151;-66
2024/01/24 05:06:10;;;;;;;121.78;48.30;;;15.40;99.90;;;;;;5067210;28;20576;-65
2024/01/24 05:08:36;;;;;;;108.18;44.08;;;15.00;99.90;;;;;;5066811;28;20060;-66
2024/01/24 05:11:02;;;;;;;88.03;41.72;;;15.70;99.90;;;;;;5067214;28;20040;-65
2024/01/24 05:13:28;;;;;;;89.82;40.38;;;15.60;99.90;;;;;;5065670;28;20052;-66
2024/01/24 05:15:53;;;;;;;112.20;45.83;;;15.10;99.90;;;;;;5067380;28;20536;-65
2024/01/24 05:18:19;;;;;;;109.15;43.58;;;15.00;99.90;;;;;;5060956;28;20065;-66
2024/01/24 05:20:45;;;;;;;110.45;47.15;;;15.30;99.90;;;;;;5066868;28;20144;-66
2024/01/24 05:23:11;;;;;;;111.78;45.63;;;15.10;99.90;;;;;;5066648;28;20433;-68
2024/01/24 05:25:36;;;;;;;106.88;43.35;;;14.70;99.90;;;;;;5066696;28;20067;-67
2024/01/24 05:28:02;;;;;;;108.57;47.72;;;15.30;99.90;;;;;;5065787;28;20411;-67
2024/01/24 05:30:27;;;;;;;121.00;51.42;;;14.80;99.90;;;;;;5066685;28;20476;-67
2024/01/24 05:32:56;;;;;;;103.28;46.47;;;15.30;99.90;;;;;;5068850;28;20635;-68
2024/01/24 05:35:22;;;;;;;117.30;49.63;;;14.80;99.90;;;;;;5081858;28;20044;-67
2024/01/24 05:37:47;;;;;;;109.82;48.97;;;15.30;99.90;;;;;;5066205;28;20086;-67
2024/01/24 05:40:13;;;;;;;119.80;48.92;;;15.20;99.90;;;;;;5071951;28;20055;-67
2024/01/24 05:42:39;;;;;;;114.65;49.60;;;14.60;99.90;;;;;;5085707;28;20498;-67
2024/01/24 05:45:05;;;;;;;107.43;45.70;;;15.00;99.90;;;;;;5068806;28;20493;-67
2024/01/24 05:47:31;;;;;;;118.00;46.45;;;14.60;99.90;;;;;;5078124;28;20466;-67
2024/01/24 05:49:58;;;;;;;111.20;43.40;;;15.10;99.90;;;;;;5065699;28;20060;-67
2024/01/24 05:52:23;;;;;;;118.35;49.50;;;15.20;99.90;;;;;;5059553;28;20076;-67
2024/01/24 05:54:49;;;;;;;101.57;47.28;;;15.10;99.90;;;;;;5072704;28;20646;-67
2024/01/24 05:57:14;;;;;;;104.95;44.33;;;14.60;99.90;;;;;;5070779;28;20485;-67
2024/01/24 05:59:40;;;;;;;121.57;44.50;;;15.00;99.90;;;;;;5050072;28;20573;-68
2024/01/24 06:02:05;;;;;;;109.35;42.10;;;15.00;99.90;;;;;;5060529;28;20043;-66
2024/01/24 06:04:31;;;;;;;103.15;42.30;;;14.50;99.90;;;;;;5057401;28;20086;-68
2024/01/24 06:07:00;;;;;;;109.22;44.83;;;15.00;99.90;;;;;;5035991;28;20397;-67
2024/01/24 06:09:29;;;;;;;103.45;42.83;;;15.10;99.90;;;;;;5072703;28;20064;-66
2024/01/24 06:11:54;;;;;;;94.78;43.92;;;15.00;99.90;;;;;;5054589;28;20052;-66
2024/01/24 06:14:20;;;;;;;112.22;46.53;;;14.70;99.90;;;;;;5065802;28;20044;-67
2024/01/24 06:16:45;;;;;;;106.60;46.20;;;15.00;99.90;;;;;;5074748;28;20027;-67
2024/01/24 06:19:11;;;;;;;120.20;49.22;;;14.90;99.90;;;;;;5066817;28;20080;-68
2024/01/24 06:21:37;;;;;;;123.25;48.88;;;14.60;99.90;;;;;;5068971;28;20501;-68
2024/01/24 06:24:05;;;;;;;127.65;49.47;;;14.80;99.90;;;;;;5067399;28;20050;-70
2024/01/24 06:26:30;;;;;;;113.47;46.22;;;14.80;99.90;;;;;;5072445;28;20052;-69
2024/01/24 06:28:56;;;;;;;95.95;44.03;;;14.60;99.90;;;;;;5044290;28;20044;-70
2024/01/24 06:31:22;;;;;;;118.93;47.33;;;14.80;99.90;;;;;;5043065;28;20460;-67
2024/01/24 06:33:48;;;;;;;86.43;41.55;;;14.70;99.90;;;;;;5063499;28;20116;-68
2024/01/24 06:36:13;;;;;;;113.35;44.90;;;14.60;99.90;;;;;;5062227;28;20032;-67
2024/01/24 06:38:39;;;;;;;98.75;45.20;;;14.60;99.90;;;;;;5056433;28;20466;-66
2024/01/24 06:41:04;;;;;;;93.18;42.20;;;14.60;98.80;;;;;;5063728;28;20044;-66
2024/01/24 06:43:30;;;;;;;101.70;44.47;;;15.00;94.30;;;;;;5051448;28;20056;-66
2024/01/24 06:45:56;;;;;;;116.40;45.30;;;14.90;92.00;;;;;;5076107;28;20044;-66
2024/01/24 06:48:21;;;;;;;99.13;44.75;;;15.20;90.50;;;;;;5063538;28;20405;-67
2024/01/24 06:50:47;;;;;;;93.15;43.20;;;15.20;86.30;;;;;;5046192;28;20070;-67
2024/01/24 06:53:14;;;;;;;90.30;42.65;;;15.10;82.60;;;;;;5047712;28;20417;-71
2024/01/24 06:55:40;;;;;;;90.97;42.22;;;14.70;77.30;;;;;;5047492;28;20498;-67
2024/01/24 06:58:06;;;;;;;82.38;40.75;;;15.30;74.60;;;;;;5064369;28;20519;-68
2024/01/24 07:00:32;;;;;;;96.38;42.50;;;15.30;68.50;;;;;;5064245;28;20045;-67
2024/01/24 07:02:59;;;;;;;78.60;39.22;;;14.90;64.60;;;;;;5065147;28;20048;-67
2024/01/24 07:05:25;;;;;;;109.35;45.05;;;14.80;90.20;;;;;;5049753;28;20501;-66
2024/01/24 07:07:50;;;;;;;108.47;43.58;;;15.40;81.10;;;;;;5065289;28;20044;-67
2024/01/24 07:10:16;;;;;;;107.18;44.05;;;15.20;82.80;;;;;;5065647;28;20090;-68
2024/01/24 07:12:51;;;;;;;101.97;42.97;;;14.80;74.70;;;;;;5063914;28;20032;-67
2024/01/24 07:15:17;;;;;;;107.73;45.47;;;14.80;86.20;;;;;;5064677;28;20060;-66
2024/01/24 07:17:43;;;;;;;91.88;43.03;;;15.20;63.50;;;;;;5063223;28;20047;-67
2024/01/24 07:20:09;;;;;;;95.93;44.05;;;15.00;66.50;;;;;;5064215;28;20461;-67
2024/01/24 07:22:34;;;;;;;104.63;45.28;;;14.70;93.80;;;;;;5045806;28;20040;-66
2024/01/24 07:25:01;;;;;;;78.97;39.00;;;15.10;94.40;;;;;;5062618;28;20070;-67
2024/01/24 07:27:26;;;;;;;86.07;40.47;;;14.80;71.60;;;;;;5062227;28;20554;-66
2024/01/24 07:29:52;;;;;;;83.75;41.85;;;15.10;68.30;;;;;;5062604;28;20042;-68
2024/01/24 07:32:17;;;;;;;86.53;41.53;;;15.00;72.90;;;;;;5063221;28;20040;-67
2024/01/24 07:34:43;;;;;;;93.55;43.78;;;15.00;72.60;;;;;;5063166;28;20072;-68
2024/01/24 07:37:09;;;;;;;85.95;42.65;;;15.30;75.70;;;;;;5045013;28;20052;-67
2024/01/24 07:39:35;;;;;;;111.40;45.63;;;14.50;77.00;;;;;;5063151;28;20059;-67
2024/01/24 07:42:00;;;;;;;102.80;44.90;;;14.70;78.60;;;;;;5063750;28;20040;-65
2024/01/24 07:44:26;;;;;;;116.38;50.05;;;14.80;83.80;;;;;;5062718;28;20087;-65
2024/01/24 07:46:52;;;;;;;103.13;47.28;;;14.30;83.50;;;;;;5062909;28;20068;-65
2024/01/24 07:49:18;;;;;;;99.05;44.72;;;14.30;84.30;;;;;;5064365;28;20050;-65
2024/01/24 07:51:46;;;;;;;113.15;48.22;;;14.70;89.80;;;;;;5063574;28;20032;-65
2024/01/24 07:54:17;;;;;;;96.90;44.13;;;14.20;87.30;;;;;;5061992;28;20047;-66
2024/01/24 07:56:43;;;;;;;95.00;42.47;;;14.70;88.30;;;;;;5042709;28;20085;-65
2024/01/24 07:59:09;;;;;;;105.10;45.50;;;14.50;91.10;;;;;;5063859;28;20110;-66
2024/01/24 08:01:34;;;;;;;91.95;42.45;;;14.20;91.90;;;;;;5063291;28;20040;-65
2024/01/24 08:04:00;;;;;;;103.93;44.75;;;14.70;90.30;;;;;;5058135;28;20438;-65
2024/01/24 08:06:26;;;;;;;96.07;42.40;;;14.40;87.90;;;;;;5058075;28;20053;-65
2024/01/24 08:08:51;;;;;;;105.43;46.63;;;14.80;85.50;;;;;;5024089;28;20044;-65
2024/01/24 08:11:17;;;;;;;98.18;44.80;;;14.50;82.10;;;;;;5062546;28;20040;-65
2024/01/24 08:13:43;;;;;;;85.55;41.03;;;14.70;80.80;;;;;;5061337;28;20040;-65
2024/01/24 08:16:09;;;;;;;88.07;41.90;;;14.90;77.90;;;;;;5064448;28;20383;-65
2024/01/24 08:18:34;;;;;;;96.10;44.42;;;14.80;74.60;;;;;;5062848;28;20051;-66
2024/01/24 08:21:00;;;;;;;92.15;42.33;;;14.40;75.60;;;;;;5067296;28;20070;-66
2024/01/24 08:23:25;;;;;;;100.30;45.53;;;14.40;77.80;;;;;;5067635;28;20036;-65
2024/01/24 08:25:51;;;;;;;95.95;43.70;;;14.50;75.30;;;;;;5068329;28;20036;-65
2024/01/24 08:28:16;;;;;;;104.43;46.20;;;14.40;73.10;;;;;;5049675;28;20075;-66
2024/01/24 08:30:42;;;;;;;100.85;44.10;;;14.90;99.70;;;;;;5059688;28;20391;-65
2024/01/24 08:33:08;;;;;;;104.00;42.42;;;15.00;83.50;;;;;;5067369;28;20119;-65
2024/01/24 08:35:35;;;;;;;91.35;39.90;;;14.80;77.30;;;;;;5067172;28;20131;-65
2024/01/24 08:38:04;;;;;;;121.43;48.00;;;14.60;73.90;;;;;;5066607;28;20091;-65
2024/01/24 08:40:30;;;;;;;99.85;45.42;;;14.80;74.30;;;;;;5065777;28;20052;-65
2024/01/24 08:42:55;;;;;;;119.45;49.40;;;15.00;72.20;;;;;;5066764;28;20529;-65
2024/01/24 08:45:21;;;;;;;94.05;43.72;;;14.70;87.60;;;;;;5067168;28;20457;-65
2024/01/24 08:47:47;;;;;;;96.40;43.90;;;14.70;83.60;;;;;;5066835;28;20095;-66
2024/01/24 08:50:12;;;;;;;95.28;44.60;;;15.00;70.40;;;;;;5066322;28;20040;-65
2024/01/24 08:52:38;;;;;;;106.93;50.33;;;14.90;64.70;;;;;;5066588;28;20441;-65
2024/01/24 08:55:06;;;;;;;92.93;45.42;;;15.10;63.10;;;;;;5046818;28;20127;-65
2024/01/24 08:57:32;;;;;;;87.32;44.33;;;14.80;63.20;;;;;;5064775;28;20068;-65
2024/01/24 08:59:57;;;;;;;98.72;49.28;;;15.10;62.00;;;;;;5065679;28;20128;-66
2024/01/24 09:02:23;;;;;;;93.80;44.72;;;15.30;84.10;;;;;;5065309;28;20040;-66
2024/01/24 09:04:51;;;;;;;81.03;41.67;;;14.70;81.60;;;;;;5048407;28;20502;-66
2024/01/24 09:07:19;;;;;;;96.30;43.13;;;15.20;91.00;;;;;;5067014;28;20052;-65
2024/01/24 09:09:50;;;;;;;89.72;40.70;;;15.40;90.10;;;;;;5063957;28;20055;-66
2024/01/24 09:12:16;;;;;;;85.20;40.47;;;15.30;78.50;;;;;;5064591;28;20044;-65
2024/01/24 09:14:44;;;;;;;99.30;42.95;;;15.20;76.40;;;;;;5065655;28;20040;-65
2024/01/24 09:17:11;;;;;;;88.97;41.28;;;15.10;78.80;;;;;;5048938;28;20051;-65
2024/01/24 09:19:36;;;;;;;91.57;41.60;;;15.10;74.50;;;;;;5065909;28;20036;-65
2024/01/24 09:22:02;;;;;;;89.90;44.60;;;15.20;67.60;;;;;;5046563;28;20411;-66
2024/01/24 09:24:27;;;;;;;101.68;45.15;;;15.30;72.90;;;;;;5064389;28;20053;-65
2024/01/24 09:26:53;;;;;;;106.45;45.13;;;15.40;70.10;;;;;;5066406;28;20036;-65
2024/01/24 09:29:18;;;;;;;90.55;43.83;;;15.90;76.60;;;;;;5064690;28;20040;-65
2024/01/24 09:31:45;;;;;;;102.53;46.80;;;14.90;77.30;;;;;;5065043;28;20044;-66
2024/01/24 09:34:12;;;;;;;97.68;48.65;;;14.90;80.00;;;;;;5065644;28;20059;-65
2024/01/24 09:36:37;;;;;;;108.15;48.78;;;15.10;83.90;;;;;;5065970;28;20053;-65
2024/01/24 09:39:03;;;;;;;105.93;47.53;;;15.30;84.80;;;;;;5047754;28;20106;-65
2024/01/24 09:41:41;;;;;;;108.60;46.85;;;15.40;92.10;;;;;;5064472;28;20048;-66
2024/01/24 09:44:11;;;;;;;103.95;44.58;;;15.00;92.90;;;;;;5056200;28;20122;-66
2024/01/24 09:46:37;;;;;;;104.10;44.78;;;15.50;81.40;;;;;;5056709;28;20036;-65
2024/01/24 09:49:06;;;;;;;100.57;46.47;;;15.40;81.30;;;;;;5065643;28;20045;-65
2024/01/24 09:51:33;;;;;;;106.78;44.97;;;15.20;80.80;;;;;;5064617;28;20048;-66
2024/01/24 09:54:05;;;;;;;95.07;43.20;;;15.20;76.40;;;;;;5063251;28;20059;-66
2024/01/24 09:56:38;;;;;;;83.50;38.15;;;15.60;71.80;;;;;;5046036;28;20051;-65
2024/01/24 09:59:05;;;;;;;106.80;43.88;;;15.60;62.00;;;;;;5047331;28;20102;-65
2024/01/24 10:01:34;;;;;;;100.03;42.80;;;15.20;64.80;;;;;;5063063;28;20545;-67
2024/01/24 10:04:02;;;;;;;88.13;41.03;;;15.80;52.90;;;;;;5065489;28;20089;-68
2024/01/24 10:06:29;;;;;;;90.32;41.63;;;15.60;41.40;;;;;;5065244;28;20136;-67
2024/01/24 10:08:55;;;;;;;101.07;42.75;;;15.40;39.70;;;;;;5065214;28;20634;-67
2024/01/24 10:11:21;;;;;;;84.82;38.53;;;15.60;36.80;;;;;;5065294;28;20044;-66
2024/01/24 10:13:46;;;;;;;87.18;40.88;;;15.40;37.50;;;;;;5065796;28;20056;-67
2024/01/24 10:16:12;;;;;;;98.00;42.58;;;15.40;37.00;;;;;;5065651;28;20413;-67
2024/01/24 10:18:38;;;;;;;90.80;43.08;;;15.40;36.50;;;;;;5029417;28;20048;-68
2024/01/24 10:21:05;;;;;;;97.90;44.40;;;15.50;35.20;;;;;;5065886;28;20047;-67
2024/01/24 10:23:31;;;;;;;89.90;40.15;;;16.00;30.00;;;;;;5061384;28;20045;-67
2024/01/24 10:26:00;;;;;;;70.65;37.83;;;15.90;21.30;;;;;;5065659;28;20838;-68
2024/01/24 10:28:26;;;;;;;77.35;38.55;;;15.80;17.00;;;;;;5065317;28;20056;-68
2024/01/24 10:30:51;;;;;;;90.80;42.97;;;15.70;15.40;;;;;;5057623;28;20040;-67
2024/01/24 10:33:17;;;;;;;91.75;42.55;;;16.10;15.40;;;;;;5058125;28;20036;-67
2024/01/24 10:35:43;;;;;;;94.30;42.03;;;15.70;14.90;;;;;;5061055;28;20498;-67
2024/01/24 10:38:12;;;;;;;78.95;39.03;;;15.80;14.40;;;;;;5056214;28;20056;-66
2024/01/24 10:40:41;;;;;;;82.97;39.50;;;15.90;12.20;;;;;;5054490;28;20032;-68
2024/01/24 10:43:14;;;;;;;90.53;41.25;;;15.90;10.20;;;;;;5058818;28;20428;-67
2024/01/24 10:45:44;;;;;;;91.25;42.50;;;15.90;10.60;;;;;;5057882;28;20438;-67
2024/01/24 10:48:11;;;;;;;87.70;41.75;;;15.80;9.90;;;;;;5061603;28;20078;-67
2024/01/24 10:50:38;;;;;;;85.85;42.30;;;15.80;8.70;;;;;;5058556;28;20052;-66
2024/01/24 10:53:05;;;;;;;77.32;38.92;;;16.30;4.80;;;;;;5052058;28;20040;-66
2024/01/24 10:55:31;;;;;;;84.80;41.58;;;16.30;1.00;;;;;;5058123;28;20047;-67
2024/01/24 10:57:57;;;;;;;95.88;45.28;;;16.20;1.00;;;;;;5042312;28;20146;-68
2024/01/24 11:00:25;;;;;;;72.55;40.75;;;16.40;1.00;;;;;;5037907;28;20159;-67
2024/01/24 11:02:52;;;;;;;93.43;44.83;;;16.00;1.00;;;;;;5037743;28;20041;-67
2024/01/24 11:05:39;;;;;;;80.88;40.75;;;16.30;1.00;;;;;;5038984;28;20753;-67
2024/01/24 11:08:29;;;;;;;82.07;41.97;;;16.30;1.00;;;;;;5061593;28;20059;-67
2024/01/24 11:10:59;;;;;;;86.70;42.58;;;15.90;1.00;;;;;;5060952;28;20529;-67
2024/01/24 11:13:24;;;;;;;91.32;43.25;;;15.70;1.00;;;;;;5056434;28;20048;-64
2024/01/24 11:15:54;;;;;;;86.53;42.42;;;16.10;1.00;;;;;;5060275;28;20546;-63
2024/01/24 11:18:31;;;;;;;93.93;43.88;;;16.00;1.00;;;;;;5046421;28;20075;-64
2024/01/24 11:20:58;;;;;;;97.03;45.53;;;15.60;1.00;;;;;;5060652;28;20398;-66
2024/01/24 11:23:46;;;;;;;83.78;42.60;;;15.80;1.00;;;;;;5057391;28;20123;-65
2024/01/24 11:26:32;;;;;;;85.25;43.75;;;15.60;1.00;;;;;;5058237;28;20036;-64
2024/01/24 11:29:10;;;;;;;90.47;43.55;;;15.90;1.00;;;;;;5060685;28;20157;-64
2024/01/24 11:31:40;;;;;;;79.85;38.55;;;15.70;1.00;;;;;;5063348;28;20036;-63
2024/01/24 11:34:07;;;;;;;79.97;41.10;;;16.20;1.00;;;;;;5063906;28;20528;-64
2024/01/24 11:36:44;;;;;;;82.28;39.15;;;16.20;1.00;;;;;;5062980;28;20060;-64
2024/01/24 11:39:31;;;;;;;80.63;39.88;;;16.20;1.00;;;;;;5063896;28;20041;-67
2024/01/24 11:42:21;;;;;;;78.72;39.72;;;16.20;1.00;;;;;;5063290;28;20049;-65
2024/01/24 11:44:47;;;;;;;79.47;39.28;;;16.00;1.00;;;;;;5063822;28;20045;-65
2024/01/24 11:47:13;;;;;;;84.65;40.58;;;16.20;1.00;;;;;;5049083;28;20332;-65
2024/01/24 11:49:38;;;;;;;80.38;41.13;;;16.20;1.00;;;;;;5067744;28;20443;-64
2024/01/24 11:52:05;;;;;;;83.60;42.60;;;15.80;1.00;;;;;;5067120;28;20044;-65
2024/01/24 11:54:30;;;;;;;73.75;39.33;;;16.20;1.00;;;;;;5068899;28;20033;-64
2024/01/24 11:56:58;;;;;;;81.13;41.10;;;16.40;1.00;;;;;;5068115;28;20037;-62
2024/01/24 11:59:23;;;;;;;75.90;40.65;;;15.90;1.00;;;;;;5048572;28;20158;-62
2024/01/24 12:01:49;;;;;;;80.88;39.38;;;16.20;1.00;;;;;;5067180;28;20119;-63
2024/01/24 12:04:15;;;;;;;83.43;38.65;;;15.80;1.00;;;;;;5069077;28;20047;-63
2024/01/24 12:06:41;;;;;;;87.07;41.13;;;15.80;1.00;;;;;;5068036;28;20040;-63
2024/01/24 12:09:09;;;;;;;72.82;34.90;;;16.10;1.00;;;;;;5048628;28;20056;-64
2024/01/24 12:11:35;;;;;;;84.38;40.75;;;15.90;1.00;;;;;;5067299;28;20040;-63
2024/01/24 12:14:01;;;;;;;70.93;36.67;;;15.70;1.00;;;;;;5065071;28;20666;-63
2024/01/24 12:16:28;;;;;;;85.22;40.55;;;15.70;1.00;;;;;;5064298;28;20037;-65
2024/01/24 12:18:56;;;;;;;90.97;39.90;;;16.40;1.00;;;;;;5046227;28;20040;-64
2024/01/24 12:21:22;;;;;;;69.78;32.45;;;16.10;1.00;;;;;;5064245;28;20080;-65
2024/01/24 12:23:48;;;;;;;69.55;35.17;;;15.70;1.00;;;;;;5058905;28;20146;-65